Logo AVAMET
Benvolgut visitant, si us plau, ingressa Recuperar contrasenya

Pego Ambra

Dades diàries. Acumulats / Últims 30 dies disponibles

Data Temperatura (°C) Humitat rel. (%) Pressió rel. (hPa) Vent (km/h) Precipitació
Mínima Mitjana Màxima Amplitud
tèrmica
Mínima Mitjana Màxima Mínima Mitjana Màxima Predom. Mitjana Ràfega
màxima
Total
(mm)
Índex-n
Mínima Mitjana Màxima Mínima Mitjana Màxima n
0 a 1
P0 max
mm 5'
Dades mensuals acumulades fins l'últim dia disponible
05/2019 10,8 15,1 22,1 19,5 18,1 24,0 31,1 20,3 29 64 95 1.007 1.013 1.023   6,1 43,4 5,6
Dades anuals acumulades fins l'últim dia disponible
2019 4,3 11,6 22,1 15,0 10,9 18,7 31,1 26,8 15 59 97 992 1.017 1.034   6,3 82,0 460,8
Últims 30 dies disponibles
20-05-2019 14,8     17,7     18,5 3,7 56 62 69 1.010 1.011 1.011 SE 0,9 14,8 0,0
19-05-2019 16,5     20,7     23,3 6,8 29 49 60 1.007 1.008 1.010 S 6,7 33,3 0,0
15-05-2019 16,5     19,4     21,8 5,3 45 65 79 1.009 1.010 1.012 SE 4,6 22,5 0,0
14-05-2019 13,7     21,9     27,6 13,9 30 51 76 1.011 1.014 1.019 S 7,0 32,2 0,0
13-05-2019 14,9     19,1     22,6 7,7 42 63 80 1.016 1.018 1.019 SSE 5,2 22,5 0,0
12-05-2019 16,0     19,7     24,7 8,7 52 72 91 1.017 1.020 1.023 S 5,2 31,5 0,0
11-05-2019 17,7     21,8     28,3 10,6 33 64 84 1.012 1.016 1.021 SE 5,2 29,6 0,0
10-05-2019 22,1     26,4     31,1 9,0 29 46 60 1.009 1.010 1.012 SO 10,4 42,6 0,0
09-05-2019 20,9     24,3     28,9 8,0 39 49 61 1.008 1.010 1.012 ONO 11,5 38,9 0,0
08-05-2019 13,9     22,5     29,0 15,1 35 60 95 1.007 1.010 1.013 O 9,1 43,4 0,0
07-05-2019 14,8     19,7     26,7 11,9 41 73 92 1.011 1.014 1.017 S 4,6 37,0 0,0
06-05-2019 12,6     16,6     22,2 9,6 63 78 88 1.014 1.016 1.018 SSE 4,5 22,5 0,0
05-05-2019 13,1     16,9     21,4 8,3 45 62 79 1.009 1.013 1.015 S 7,4 40,7 0,0
04-05-2019 10,8     16,2     21,5 10,7 41 64 90 1.008 1.010 1.012 S 7,3 38,9 0,3
03-05-2019 11,4     14,6     18,1 6,7 68 79 92 1.008 1.011 1.013 S 5,2 32,2 5,0 0,42 0,60
02-05-2019 14,2     16,1     18,4 4,2 69 78 88 1.012 1.013 1.015 SSE 4,0 18,5 0,0
01-05-2019 13,4     17,5     23,6 10,2 43 72 92 1.010 1.013 1.014 SSO 5,0 27,8 0,3
30-04-2019 14,3     17,8     22,4 8,1 56 75 88 1.012 1.014 1.016 SSO 6,3 33,3 11,8 0,57 1,50
29-04-2019 13,3     16,5     20,7 7,4 66 80 92 1.014 1.017 1.019 SSE 5,8 33,8 0,0
28-04-2019 14,3     18,0     23,7 9,4 38 66 87 1.016 1.020 1.023 SE 3,8 19,3 0,0
27-04-2019 13,1     18,2     22,8 9,7 37 51 62 1.021 1.023 1.025 SSE 4,6 25,9 0,0
26-04-2019 13,3     17,7     21,8 8,5 33 46 60 1.016 1.019 1.022 SO 10,9 45,0 0,0
25-04-2019 15,3     18,5     21,0 5,7 41 55 68 1.007 1.010 1.016 SSO 7,4 35,4 0,0
24-04-2019 11,6     16,7     21,0 9,4 35 48 57 1.002 1.007 1.009 SO 11,5 50,0 0,3
23-04-2019 13,3     16,0     20,3 7,0 54 73 92 996 998 1.002 SSO 3,8 29,6 3,8
22-04-2019 12,2     13,5     15,8 3,6 68 85 96 998 1.000 1.004 ONO 9,1 38,9 60,1 0,33 2,70
21-04-2019 12,1     12,9     13,8 1,7 83 93 97 1.004 1.008 1.014 S 13,7 42,6 128,5 0,32 0,90
20-04-2019 13,0     13,9     14,4 1,4 90 94 96 1.012 1.014 1.016 ESE 11,6 32,2 48,0 0,29 2,30
19-04-2019 12,8     13,7     14,7 1,9 87 93 97 1.012 1.014 1.016 S 4,5 35,4 31,2 0,24 0,90
18-04-2019 13,8     14,4     15,9 2,1 77 90 96 1.009 1.012 1.016 SO 7,1 42,6 8,0 0,42 0,60
Últims 13 mesos disponibles
04/2019 9,8 12,7 15,3 15,9 13,8 19,5 28,5 18,7 32 66 94 998 1.011 1.023 SO 7,9 56,3 342,5
03/2019 7,8 11,7 19,0 15,4 13,1 19,4 27,6 19,8 33 56 94 1.008 1.021 1.028 S 5,5 53,7 108,5
02/2019 5,9 9,9 14,0 13,5 12,6 17,0 22,8 16,9 34 59 82 993 1.023 1.032 S 5,3 82,0 0,0
01/2019 4,3 9,8 14,8 12,8 10,9 16,1 20,6 16,3 33 53 80 1.001 1.017 1.029 SO 6,5 74,0 4,2
12/2018 8,6 11,8 15,8 14,9 12,7 18,6 23,9 15,3 42 63 89 1.007 1.023 1.029 SO 3,9 61,1 39,2
11/2018 10,4 13,4 16,6 15,7 14,4 18,3 22,3 11,9 40 66 93 999 1.013 1.021 OSO 5,7 66,6 155,1
10/2018 9,2 16,7 20,6 19,3 14,1 22,7 28,7 19,5 41 69 89 998 1.012 1.023 4,4 64,8 126,5
09/2018 17,7 21,4 23,7 24,3 24,3 27,8 32,8 15,1 46 75 87 1.010 1.017 1.025 3,6 53,7 79,8
08/2018 21,3 23,9 27,4 27,3 25,3 31,4 37,1 15,8 40 67 86 1.009 1.014 1.019 5,1 53,7 104,0
07/2018 21,7 23,5 26,3 27,3 25,7 32,0 36,8 15,1 30 63 85 1.007 1.012 1.017 6,1 55,5 1,5
06/2018 15,6 20,2 22,8 24,0 21,4 28,3 33,7 18,1 42 60 78 1.007 1.012 1.018 6,0 56,3 40,2
05/2018 10,8 15,8 19,1 19,5 16,2 23,7 28,4 17,6 42 62 82 1.007 1.012 1.015 6,2 46,7 7,2
04/2018 9,9 13,4 16,7 16,8 14,2 20,2 29,2 19,3 37 61 87 995 1.012 1.023 7,9 72,4 25,2
Tots els anys disponibles
2018 4,2 16,1 27,4 19,2 7,8 22,9 37,1 32,9 29 63 94 991 1.014 1.033 S 5,5 87,0 790,1
2017 0,9 15,9 27,0 19,4 8,8 22,9 37,9 37,0 55 64 72 1.013 1.017 1.021 91,0 928,0
2016 5,8 16,1 28,1 19,6 12,2 23,0 41,1 35,3 55 63 78 1.012 1.016 1.025 95,0 726,4
2015 3,0 16,0 22,5 19,5 21,2 23,1 41,6 38,6 54 64 75 1.013 1.018 1.029 95,0 907,0
2014 0,9 14,2 26,0 19,1 9,4 24,0 39,1 38,2 31 62 98 993 1.015 1.032 86,0 347,1
2013 1,5 13,5 16,6 18,2 18,5 22,8 37,4 35,9 50 63 73 1.004 1.014 1.022 114,0 846,0
2012 -1,7 13,6 19,3 18,3 21,5 23,4 41,4 43,1 51 64 76 1.008 1.015 1.021 4,3 74,0 984,2
2011 -0,7 13,7 23,5 17,7 5,4 22,7 37,7 38,4 38 72 98 803 1.015 1.032 4,7 93,0 1.174,0
2010 -0,1 15,7 27,7 19,9 9,3 24,2 40,1 40,2 33 67 98 989 1.010 1.026 5,2 76,0 814,7
Temperatura (°C)
Humitat relativa (%)
Velocitat del vent i ràfega màxima (km/h)
Direcció del vent (°)
Pressió (hPa)
Precipitació (mm)
Nota sobre les dades: s'avisa a l'usuari de la provisionalitat i no oficialitat d'aquestes dades
Logo AVAMET blanc
Web allotjada a Sollutia
Llicència de Creative CommonsLa web d'AVAMET i els seus continguts estan subjectes a una llicència de
Reconeixement - No Comercial - Compartir igual
Properes estacions: Altea - Club Nàutic d'Altea (Soci), Ontinyent - El Pilar (Soci), Ares del Maestrat (Ajuntament Soci), Catadau - L'Altet (Inforatge)     - - - - -      Últimes estacions: Jacarilla - centro (MeteOrihuela), Elx - Maitino/Vallverda/Velarde/Matola/Ferriol (Soci TiempoElche.com), Orihuela - Playa Flamenca (MeteOrihuela), Puçol - Ciutat Jardí (Soci), Alzira - La Casella (Soci) - - -